Wind From: 11-12-2017 06:00 Until: 12-12-2017 06:00 warning for: Wind Level: Orange info button

Power and phone distribution networks may be disrupted for relatively long periods., Roofs and chimneys can be damaged. , Tree branches may break. , Vehicles can be deported. , Traffic may be disrupted, particularly on secondary roads in forest areas. Limit your trips. , Limit your speed in highway driving, especially if you drive a vehicle or hitch sensitive to wind. , Do not go for walks in forests or along the coast., In town, be vigilant against possible falling objects., Do not work on roofs and do not touch any electrical line fallen on the ground., Store or secure sensitive objects to wind or likely to be damaged., Always install power generators outside buildings. 


Meteo18 Weather Cam more information Meteo18 Weather Cam


Thunder radar more information blitzortung!


Rain radar more information rain snow radar


Visit our other weather sites:

Template documentation
and downloads

And another site



Weather Underground History page Text

Daily Summary for February 1, 2017 Units:  Both    English   Metric
« Previous Day
Next Day »
Daily Weekly Monthly Yearly Custom
  High: Low: Average:
Temperature: 56.5 °F /  13.6 °C 40.8 °F /  4.9 °C 48.7 °F /  9.3 °C
Dew Point: 50.9 °F /  10.5 °C 40.3 °F /  4.6 °C 46 °F /  7.8 °C
Humidity: 98 % 77 % 91 %
Wind Speed: 8 mph /  12.9 km/h - 1.4 mph /  2.2 km/h
Wind Gust: 12 mph /  19.3 km/h - -
Wind:- - SSW
Pressure: 30 in /  1016.1 hPa 29.9 in /  1012.4 hPa -
Precipitation: 0.01 in /  0.3 mm    
Historical Graphs
 
 
Tabular Data for February 1, 2017
Time Temperature Dew Point Pressure Wind Wind Speed Wind Gust Humidity Rainfall Rate (Hourly)
00:02 48.4 °F /  9.1 °C 47.8 °F /  8.8 °C 30 in /  1016.1 hPa Calm     98 % 0 in /  0.0 mm
00:12 48.4 °F /  9.1 °C 47.8 °F /  8.8 °C 30 in /  1016.1 hPa Calm     98 % 0 in /  0.0 mm
00:17 48.4 °F /  9.1 °C 47.8 °F /  8.8 °C 30 in /  1016.1 hPa Calm     98 % 0 in /  0.0 mm
00:22 48.6 °F /  9.2 °C 48 °F /  8.9 °C 30 in /  1016.1 hPa Calm     98 % 0 in /  0.0 mm
00:32 48.4 °F /  9.1 °C 47.8 °F /  8.8 °C 30 in /  1016.1 hPa Calm     98 % 0 in /  0.0 mm
00:37 48.4 °F /  9.1 °C 47.8 °F /  8.8 °C 30 in /  1016.1 hPa Calm     98 % 0 in /  0.0 mm
00:42 48.4 °F /  9.1 °C 47.8 °F /  8.8 °C 30 in /  1016.1 hPa Calm     98 % 0 in /  0.0 mm
00:52 48.4 °F /  9.1 °C 47.8 °F /  8.8 °C 30 in /  1016.1 hPa Calm     98 % 0 in /  0.0 mm
00:57 48 °F /  8.9 °C 47.5 °F /  8.6 °C 30 in /  1016.1 hPa Calm     98 % 0 in /  0.0 mm
01:02 48 °F /  8.9 °C 47.5 °F /  8.6 °C 30 in /  1016.1 hPa Calm     98 % 0 in /  0.0 mm
01:12 48 °F /  8.9 °C 47.5 °F /  8.6 °C 30 in /  1015.8 hPa Calm     98 % 0 in /  0.0 mm
01:17 48 °F /  8.9 °C 47.5 °F /  8.6 °C 30 in /  1015.8 hPa Calm     98 % 0 in /  0.0 mm
01:22 48 °F /  8.9 °C 47.5 °F /  8.6 °C 30 in /  1015.8 hPa Calm     98 % 0 in /  0.0 mm
01:27 48 °F /  8.9 °C 47.5 °F /  8.6 °C 30 in /  1015.8 hPa Calm     98 % 0 in /  0.0 mm
01:32 48 °F /  8.9 °C 47.5 °F /  8.6 °C 30 in /  1015.8 hPa Calm     98 % 0 in /  0.0 mm
01:37 48 °F /  8.9 °C 47.5 °F /  8.6 °C 30 in /  1015.8 hPa Calm     98 % 0 in /  0.0 mm
01:42 47.8 °F /  8.8 °C 47.3 °F /  8.5 °C 30 in /  1015.8 hPa Calm     98 % 0 in /  0.0 mm
01:47 47.8 °F /  8.8 °C 47.3 °F /  8.5 °C 30 in /  1015.8 hPa Calm     98 % 0 in /  0.0 mm
01:52 47.8 °F /  8.8 °C 47.3 °F /  8.5 °C 30 in /  1015.8 hPa Calm     98 % 0 in /  0.0 mm
01:57 47.8 °F /  8.8 °C 47.3 °F /  8.5 °C 30 in /  1015.8 hPa Calm     98 % 0 in /  0.0 mm
02:02 47.7 °F /  8.7 °C 47.1 °F /  8.4 °C 30 in /  1015.5 hPa Calm     98 % 0 in /  0.0 mm
02:07 47.7 °F /  8.7 °C 47.1 °F /  8.4 °C 30 in /  1015.5 hPa Calm     98 % 0 in /  0.0 mm
02:12 47.7 °F /  8.7 °C 47.1 °F /  8.4 °C 30 in /  1015.8 hPa Calm     98 % 0 in /  0.0 mm
02:17 47.7 °F /  8.7 °C 47.1 °F /  8.4 °C 30 in /  1015.8 hPa Calm     98 % 0 in /  0.0 mm
02:22 47.5 °F /  8.6 °C 46.9 °F /  8.3 °C 30 in /  1015.5 hPa Calm     98 % 0 in /  0.0 mm
02:27 47.3 °F /  8.5 °C 46.8 °F /  8.2 °C 30 in /  1015.5 hPa Calm     98 % 0 in /  0.0 mm
02:32 47.3 °F /  8.5 °C 46.8 °F /  8.2 °C 30 in /  1015.5 hPa Calm     98 % 0 in /  0.0 mm
02:37 47.5 °F /  8.6 °C 46.9 °F /  8.3 °C 30 in /  1015.5 hPa Calm     98 % 0 in /  0.0 mm
02:42 47.5 °F /  8.6 °C 46.9 °F /  8.3 °C 30 in /  1015.5 hPa Calm     98 % 0 in /  0.0 mm
02:47 47.5 °F /  8.6 °C 46.9 °F /  8.3 °C 30 in /  1015.5 hPa Calm     98 % 0 in /  0.0 mm
02:52 47.3 °F /  8.5 °C 46.8 °F /  8.2 °C 30 in /  1015.5 hPa Calm     98 % 0 in /  0.0 mm
02:57 47.3 °F /  8.5 °C 46.8 °F /  8.2 °C 30 in /  1015.5 hPa Calm     98 % 0 in /  0.0 mm
03:02 47.3 °F /  8.5 °C 46.8 °F /  8.2 °C 30 in /  1015.5 hPa Calm     98 % 0 in /  0.0 mm
03:07 47.1 °F /  8.4 °C 46.6 °F /  8.1 °C 30 in /  1015.5 hPa Calm     98 % 0 in /  0.0 mm
03:12 46.9 °F /  8.3 °C 46.4 °F /  8.0 °C 30 in /  1015.5 hPa Calm     98 % 0 in /  0.0 mm
03:17 46.8 °F /  8.2 °C 46.2 °F /  7.9 °C 30 in /  1015.5 hPa Calm     98 % 0 in /  0.0 mm
03:22 46.9 °F /  8.3 °C 46.4 °F /  8.0 °C 30 in /  1015.1 hPa Calm     98 % 0 in /  0.0 mm
03:27 46.8 °F /  8.2 °C 46.2 °F /  7.9 °C 30 in /  1015.1 hPa Calm     98 % 0 in /  0.0 mm
03:32 46.9 °F /  8.3 °C 46.4 °F /  8.0 °C 30 in /  1015.1 hPa Calm     98 % 0 in /  0.0 mm
03:37 46.9 °F /  8.3 °C 46.4 °F /  8.0 °C 30 in /  1015.1 hPa Calm     98 % 0 in /  0.0 mm
03:42 46.4 °F /  8.0 °C 45.9 °F /  7.7 °C 30 in /  1015.1 hPa Calm     98 % 0 in /  0.0 mm
03:47 46.2 °F /  7.9 °C 45.7 °F /  7.6 °C 30 in /  1015.1 hPa Calm     98 % 0 in /  0.0 mm
03:52 46.2 °F /  7.9 °C 45.7 °F /  7.6 °C 30 in /  1015.1 hPa Calm     98 % 0 in /  0.0 mm
03:57 46.2 °F /  7.9 °C 45.7 °F /  7.6 °C 30 in /  1015.1 hPa Calm     98 % 0 in /  0.0 mm
04:02 46.2 °F /  7.9 °C 45.7 °F /  7.6 °C 30 in /  1015.1 hPa Calm     98 % 0 in /  0.0 mm
04:07 46.2 °F /  7.9 °C 45.7 °F /  7.6 °C 30 in /  1015.1 hPa Calm     98 % 0 in /  0.0 mm
04:12 46 °F /  7.8 °C 45.5 °F /  7.5 °C 30 in /  1014.8 hPa Calm     98 % 0 in /  0.0 mm
04:17 45.9 °F /  7.7 °C 45.3 °F /  7.4 °C 30 in /  1015.1 hPa Calm     98 % 0 in /  0.0 mm
04:22 45.7 °F /  7.6 °C 45.1 °F /  7.3 °C 30 in /  1015.1 hPa Calm     98 % 0 in /  0.0 mm
04:27 45.3 °F /  7.4 °C 44.8 °F /  7.1 °C 30 in /  1015.1 hPa Calm     98 % 0 in /  0.0 mm
04:32 45.1 °F /  7.3 °C 44.6 °F /  7.0 °C 30 in /  1015.1 hPa Calm     98 % 0 in /  0.0 mm
04:37 45.1 °F /  7.3 °C 44.6 °F /  7.0 °C 30 in /  1015.1 hPa Calm     98 % 0 in /  0.0 mm
04:42 45.1 °F /  7.3 °C 44.6 °F /  7.0 °C 30 in /  1015.1 hPa Calm     98 % 0 in /  0.0 mm
04:47 45 °F /  7.2 °C 44.4 °F /  6.9 °C 30 in /  1015.1 hPa Calm     98 % 0 in /  0.0 mm
04:52 45 °F /  7.2 °C 44.4 °F /  6.9 °C 30 in /  1015.1 hPa Calm     98 % 0 in /  0.0 mm
04:57 45.1 °F /  7.3 °C 44.6 °F /  7.0 °C 30 in /  1015.1 hPa Calm     98 % 0 in /  0.0 mm
05:02 45.3 °F /  7.4 °C 44.8 °F /  7.1 °C 30 in /  1014.8 hPa Calm     98 % 0 in /  0.0 mm
05:07 45.1 °F /  7.3 °C 44.6 °F /  7.0 °C 30 in /  1014.8 hPa Calm     98 % 0 in /  0.0 mm
05:12 45.1 °F /  7.3 °C 44.6 °F /  7.0 °C 30 in /  1014.8 hPa Calm     98 % 0 in /  0.0 mm
05:17 45.1 °F /  7.3 °C 44.6 °F /  7.0 °C 30 in /  1014.8 hPa Calm     98 % 0 in /  0.0 mm
05:22 45 °F /  7.2 °C 44.4 °F /  6.9 °C 30 in /  1014.8 hPa Calm     98 % 0 in /  0.0 mm
05:27 44.8 °F /  7.1 °C 44.2 °F /  6.8 °C 30 in /  1014.8 hPa Calm     98 % 0 in /  0.0 mm
05:32 44.2 °F /  6.8 °C 43.7 °F /  6.5 °C 30 in /  1014.8 hPa Calm     98 % 0 in /  0.0 mm
05:37 43.9 °F /  6.6 °C 43.3 °F /  6.3 °C 30 in /  1014.8 hPa Calm     98 % 0 in /  0.0 mm
05:42 44.1 °F /  6.7 °C 43.5 °F /  6.4 °C 30 in /  1014.8 hPa Calm     98 % 0 in /  0.0 mm
05:47 44.2 °F /  6.8 °C 43.7 °F /  6.5 °C 30 in /  1014.8 hPa Calm     98 % 0 in /  0.0 mm
05:52 43.9 °F /  6.6 °C 43.3 °F /  6.3 °C 30 in /  1014.8 hPa Calm     98 % 0 in /  0.0 mm
05:57 44.1 °F /  6.7 °C 43.5 °F /  6.4 °C 30 in /  1014.8 hPa Calm     98 % 0 in /  0.0 mm
06:02 44.1 °F /  6.7 °C 43.5 °F /  6.4 °C 30 in /  1014.8 hPa Calm     98 % 0 in /  0.0 mm
06:12 43.7 °F /  6.5 °C 43.2 °F /  6.2 °C 30 in /  1014.8 hPa Calm     98 % 0 in /  0.0 mm
06:17 43.5 °F /  6.4 °C 43 °F /  6.1 °C 30 in /  1014.8 hPa Calm     98 % 0 in /  0.0 mm
06:22 43.3 °F /  6.3 °C 42.8 °F /  6.0 °C 30 in /  1014.8 hPa Calm     98 % 0 in /  0.0 mm
06:27 43.3 °F /  6.3 °C 42.8 °F /  6.0 °C 30 in /  1014.8 hPa Calm     98 % 0 in /  0.0 mm
06:32 43.3 °F /  6.3 °C 42.8 °F /  6.0 °C 30 in /  1014.8 hPa Calm     98 % 0 in /  0.0 mm
06:37 43.3 °F /  6.3 °C 42.8 °F /  6.0 °C 30 in /  1014.8 hPa Calm     98 % 0 in /  0.0 mm
06:42 43 °F /  6.1 °C 42.4 °F /  5.8 °C 30 in /  1014.8 hPa Calm     98 % 0 in /  0.0 mm
06:47 43 °F /  6.1 °C 42.4 °F /  5.8 °C 30 in /  1014.8 hPa Calm     98 % 0 in /  0.0 mm
06:52 43 °F /  6.1 °C 42.4 °F /  5.8 °C 30 in /  1014.8 hPa Calm     98 % 0 in /  0.0 mm
06:57 42.8 °F /  6.0 °C 42.3 °F /  5.7 °C 30 in /  1014.8 hPa Calm     98 % 0 in /  0.0 mm
07:02 42.8 °F /  6.0 °C 42.3 °F /  5.7 °C 30 in /  1014.4 hPa Calm     98 % 0 in /  0.0 mm
07:07 42.6 °F /  5.9 °C 42.1 °F /  5.6 °C 30 in /  1014.8 hPa Calm     98 % 0 in /  0.0 mm
07:12 42.6 °F /  5.9 °C 42.1 °F /  5.6 °C 30 in /  1014.8 hPa Calm     98 % 0 in /  0.0 mm
07:17 42.4 °F /  5.8 °C 41.9 °F /  5.5 °C 30 in /  1014.8 hPa Calm     98 % 0 in /  0.0 mm
07:22 42.3 °F /  5.7 °C 41.7 °F /  5.4 °C 30 in /  1014.8 hPa Calm     98 % 0 in /  0.0 mm
07:27 42.3 °F /  5.7 °C 41.7 °F /  5.4 °C 30 in /  1014.8 hPa Calm     98 % 0 in /  0.0 mm
07:32 42.3 °F /  5.7 °C 41.7 °F /  5.4 °C 30 in /  1014.8 hPa Calm     98 % 0 in /  0.0 mm
07:37 42.4 °F /  5.8 °C 41.9 °F /  5.5 °C 30 in /  1014.8 hPa Calm     98 % 0 in /  0.0 mm
07:42 42.3 °F /  5.7 °C 41.7 °F /  5.4 °C 30 in /  1014.8 hPa Calm     98 % 0 in /  0.0 mm
07:47 42.4 °F /  5.8 °C 41.9 °F /  5.5 °C 30 in /  1014.8 hPa Calm     98 % 0 in /  0.0 mm
07:52 42.3 °F /  5.7 °C 41.7 °F /  5.4 °C 30 in /  1014.8 hPa Calm     98 % 0 in /  0.0 mm
07:57 42.3 °F /  5.7 °C 41.7 °F /  5.4 °C 30 in /  1014.8 hPa Calm     98 % 0 in /  0.0 mm
08:02 42.3 °F /  5.7 °C 41.7 °F /  5.4 °C 30 in /  1014.8 hPa Calm     98 % 0 in /  0.0 mm
08:07 41.7 °F /  5.4 °C 41.2 °F /  5.1 °C 30 in /  1014.8 hPa Calm     98 % 0 in /  0.0 mm
08:12 41.2 °F /  5.1 °C 40.6 °F /  4.8 °C 30 in /  1014.8 hPa Calm     98 % 0 in /  0.0 mm
08:17 41.2 °F /  5.1 °C 40.6 °F /  4.8 °C 30 in /  1014.8 hPa Calm     98 % 0 in /  0.0 mm
08:22 41.5 °F /  5.3 °C 41 °F /  5.0 °C 30 in /  1014.8 hPa Calm     98 % 0 in /  0.0 mm
08:27 41.5 °F /  5.3 °C 41 °F /  5.0 °C 30 in /  1014.8 hPa Calm     98 % 0.01 in /  0.3 mm
08:32 41.5 °F /  5.3 °C 41 °F /  5.0 °C 30 in /  1014.8 hPa Calm     98 % 0.01 in /  0.3 mm
08:37 41.5 °F /  5.3 °C 41 °F /  5.0 °C 30 in /  1014.8 hPa Calm     98 % 0.01 in /  0.3 mm
08:42 41.9 °F /  5.5 °C 41.4 °F /  5.2 °C 30 in /  1014.8 hPa Calm     98 % 0.01 in /  0.3 mm
08:47 41.7 °F /  5.4 °C 41.2 °F /  5.1 °C 30 in /  1014.8 hPa Calm     98 % 0.01 in /  0.3 mm
08:52 41.5 °F /  5.3 °C 41 °F /  5.0 °C 30 in /  1014.8 hPa Calm     98 % 0.01 in /  0.3 mm
08:57 41.4 °F /  5.2 °C 40.8 °F /  4.9 °C 30 in /  1014.8 hPa Calm     98 % 0.01 in /  0.3 mm
09:02 41.5 °F /  5.3 °C 41 °F /  5.0 °C 30 in /  1014.8 hPa Calm     98 % 0.01 in /  0.3 mm
09:07 41.5 °F /  5.3 °C 41 °F /  5.0 °C 30 in /  1014.8 hPa Calm     98 % 0.01 in /  0.3 mm
09:12 41.4 °F /  5.2 °C 40.8 °F /  4.9 °C 30 in /  1014.8 hPa Calm     98 % 0.01 in /  0.3 mm
09:17 40.8 °F /  4.9 °C 40.3 °F /  4.6 °C 30 in /  1014.8 hPa Calm     98 % 0.01 in /  0.3 mm
09:22 41.2 °F /  5.1 °C 40.6 °F /  4.8 °C 30 in /  1014.8 hPa Calm     98 % 0.01 in /  0.3 mm
09:27 41.5 °F /  5.3 °C 41 °F /  5.0 °C 30 in /  1014.8 hPa Calm     98 % 0 in /  0.0 mm
09:32 41.9 °F /  5.5 °C 41.4 °F /  5.2 °C 30 in /  1014.8 hPa Calm     98 % 0 in /  0.0 mm
09:37 42.1 °F /  5.6 °C 41.5 °F /  5.3 °C 30 in /  1014.8 hPa Calm     98 % 0 in /  0.0 mm
09:42 42.3 °F /  5.7 °C 41.7 °F /  5.4 °C 30 in /  1014.8 hPa Calm     98 % 0 in /  0.0 mm
09:52 42.6 °F /  5.9 °C 42.1 °F /  5.6 °C 30 in /  1014.8 hPa Calm     98 % 0 in /  0.0 mm
09:57 43.2 °F /  6.2 °C 42.6 °F /  5.9 °C 30 in /  1014.8 hPa Calm     98 % 0 in /  0.0 mm
10:02 43.5 °F /  6.4 °C 43 °F /  6.1 °C 30 in /  1014.8 hPa Calm     98 % 0 in /  0.0 mm
10:07 44.8 °F /  7.1 °C 44.2 °F /  6.8 °C 30 in /  1014.8 hPa Calm     98 % 0 in /  0.0 mm
10:12 45 °F /  7.2 °C 44.4 °F /  6.9 °C 30 in /  1014.8 hPa Calm     98 % 0 in /  0.0 mm
10:17 44.4 °F /  6.9 °C 43.9 °F /  6.6 °C 30 in /  1014.8 hPa Calm     98 % 0 in /  0.0 mm
10:22 44.4 °F /  6.9 °C 43.9 °F /  6.6 °C 30 in /  1014.8 hPa Calm     98 % 0 in /  0.0 mm
10:27 45 °F /  7.2 °C 44.4 °F /  6.9 °C 30 in /  1014.8 hPa Calm     98 % 0 in /  0.0 mm
10:32 45.1 °F /  7.3 °C 44.6 °F /  7.0 °C 30 in /  1014.8 hPa Calm     98 % 0 in /  0.0 mm
10:42 45.5 °F /  7.5 °C 45 °F /  7.2 °C 30 in /  1014.8 hPa Calm     98 % 0 in /  0.0 mm
10:47 45.1 °F /  7.3 °C 44.6 °F /  7.0 °C 30 in /  1014.8 hPa Calm   2 mph /  3.2 km/h 98 % 0 in /  0.0 mm
10:52 45.1 °F /  7.3 °C 44.4 °F /  6.9 °C 30 in /  1014.8 hPa Calm   2 mph /  3.2 km/h 97 % 0 in /  0.0 mm
10:57 45.3 °F /  7.4 °C 44.8 °F /  7.1 °C 30 in /  1014.8 hPa Calm   2 mph /  3.2 km/h 98 % 0 in /  0.0 mm
11:02 45.3 °F /  7.4 °C 44.6 °F /  7.0 °C 30 in /  1014.8 hPa ESE 1 mph /  1.6 km/h 2 mph /  3.2 km/h 97 % 0 in /  0.0 mm
11:07 45.5 °F /  7.5 °C 44.8 °F /  7.1 °C 30 in /  1014.8 hPa Calm   3 mph /  4.8 km/h 97 % 0 in /  0.0 mm
11:12 45.9 °F /  7.7 °C 45.3 °F /  7.4 °C 30 in /  1014.8 hPa Calm   3 mph /  4.8 km/h 98 % 0 in /  0.0 mm
11:17 46.4 °F /  8.0 °C 45.9 °F /  7.7 °C 30 in /  1014.8 hPa Calm   3 mph /  4.8 km/h 98 % 0 in /  0.0 mm
11:22 46.6 °F /  8.1 °C 46 °F /  7.8 °C 30 in /  1014.8 hPa SE 1 mph /  1.6 km/h 2 mph /  3.2 km/h 98 % 0 in /  0.0 mm
11:27 46.9 °F /  8.3 °C 46.4 °F /  8.0 °C 30 in /  1014.8 hPa Calm   2 mph /  3.2 km/h 98 % 0 in /  0.0 mm
11:32 47.3 °F /  8.5 °C 46.8 °F /  8.2 °C 30 in /  1014.4 hPa Calm   2 mph /  3.2 km/h 98 % 0 in /  0.0 mm
11:37 47.8 °F /  8.8 °C 46.9 °F /  8.3 °C 30 in /  1014.4 hPa Calm   2 mph /  3.2 km/h 97 % 0 in /  0.0 mm
11:42 48 °F /  8.9 °C 47.1 °F /  8.4 °C 30 in /  1014.8 hPa Calm     97 % 0 in /  0.0 mm
11:47 48.7 °F /  9.3 °C 47.8 °F /  8.8 °C 30 in /  1014.8 hPa Calm   3 mph /  4.8 km/h 97 % 0 in /  0.0 mm
11:52 48.9 °F /  9.4 °C 47.8 °F /  8.8 °C 30 in /  1014.8 hPa Calm   4 mph /  6.4 km/h 96 % 0 in /  0.0 mm
11:57 49.1 °F /  9.5 °C 48 °F /  8.9 °C 30 in /  1014.8 hPa SE 2 mph /  3.2 km/h 4 mph /  6.4 km/h 96 % 0 in /  0.0 mm
12:02 49.5 °F /  9.7 °C 48.4 °F /  9.1 °C 30 in /  1014.4 hPa SE 3 mph /  4.8 km/h 4 mph /  6.4 km/h 96 % 0 in /  0.0 mm
12:07 49.8 °F /  9.9 °C 48.2 °F /  9.0 °C 30 in /  1014.4 hPa SSW 2 mph /  3.2 km/h 5 mph /  8.0 km/h 94 % 0 in /  0.0 mm
12:12 50.4 °F /  10.2 °C 48.4 °F /  9.1 °C 30 in /  1014.4 hPa ESE 3 mph /  4.8 km/h 5 mph /  8.0 km/h 93 % 0 in /  0.0 mm
12:17 50.5 °F /  10.3 °C 48.4 °F /  9.1 °C 30 in /  1014.4 hPa Calm   5 mph /  8.0 km/h 92 % 0 in /  0.0 mm
12:22 50.9 °F /  10.5 °C 48.7 °F /  9.3 °C 30 in /  1014.4 hPa Calm   3 mph /  4.8 km/h 92 % 0 in /  0.0 mm
12:32 52 °F /  11.1 °C 49.1 °F /  9.5 °C 30 in /  1014.4 hPa South 1 mph /  1.6 km/h 3 mph /  4.8 km/h 90 % 0 in /  0.0 mm
12:37 52.3 °F /  11.3 °C 48.9 °F /  9.4 °C 29.9 in /  1014.1 hPa Calm   3 mph /  4.8 km/h 88 % 0 in /  0.0 mm
12:47 53.1 °F /  11.7 °C 49.3 °F /  9.6 °C 29.9 in /  1014.1 hPa Calm   5 mph /  8.0 km/h 87 % 0 in /  0.0 mm
12:52 53.4 °F /  11.9 °C 49.3 °F /  9.6 °C 29.9 in /  1014.1 hPa South 2 mph /  3.2 km/h 5 mph /  8.0 km/h 86 % 0 in /  0.0 mm
12:57 54 °F /  12.2 °C 49.8 °F /  9.9 °C 29.9 in /  1014.1 hPa South 3 mph /  4.8 km/h 5 mph /  8.0 km/h 86 % 0 in /  0.0 mm
13:02 54 °F /  12.2 °C 49.8 °F /  9.9 °C 29.9 in /  1014.1 hPa SE 2 mph /  3.2 km/h 6 mph /  9.7 km/h 86 % 0 in /  0.0 mm
13:07 54.1 °F /  12.3 °C 49.8 °F /  9.9 °C 29.9 in /  1014.1 hPa SE 2 mph /  3.2 km/h 6 mph /  9.7 km/h 85 % 0 in /  0.0 mm
13:12 54.7 °F /  12.6 °C 50 °F /  10.0 °C 29.9 in /  1013.8 hPa SSW 2 mph /  3.2 km/h 6 mph /  9.7 km/h 84 % 0 in /  0.0 mm
13:17 54.7 °F /  12.6 °C 49.6 °F /  9.8 °C 29.9 in /  1013.8 hPa South 2 mph /  3.2 km/h 6 mph /  9.7 km/h 83 % 0 in /  0.0 mm
13:22 54.5 °F /  12.5 °C 50 °F /  10.0 °C 29.9 in /  1013.8 hPa South 1 mph /  1.6 km/h 6 mph /  9.7 km/h 85 % 0 in /  0.0 mm
13:27 54.7 °F /  12.6 °C 50 °F /  10.0 °C 29.9 in /  1013.8 hPa SSW 1 mph /  1.6 km/h 6 mph /  9.7 km/h 84 % 0 in /  0.0 mm
13:32 55 °F /  12.8 °C 50.4 °F /  10.2 °C 29.9 in /  1013.8 hPa SE 1 mph /  1.6 km/h 6 mph /  9.7 km/h 84 % 0 in /  0.0 mm
13:37 55.2 °F /  12.9 °C 50.7 °F /  10.4 °C 29.9 in /  1013.8 hPa SSE 4 mph /  6.4 km/h 6 mph /  9.7 km/h 85 % 0 in /  0.0 mm
13:42 55.6 °F /  13.1 °C 50.9 °F /  10.5 °C 29.9 in /  1013.4 hPa SE 1 mph /  1.6 km/h 8 mph /  12.9 km/h 84 % 0 in /  0.0 mm
13:47 55.9 °F /  13.3 °C 50.9 °F /  10.5 °C 29.9 in /  1013.4 hPa South 2 mph /  3.2 km/h 8 mph /  12.9 km/h 83 % 0 in /  0.0 mm
13:52 55.9 °F /  13.3 °C 49.5 °F /  9.7 °C 29.9 in /  1013.4 hPa South 4 mph /  6.4 km/h 7 mph /  11.3 km/h 79 % 0 in /  0.0 mm
13:57 55.9 °F /  13.3 °C 49.5 °F /  9.7 °C 29.9 in /  1013.4 hPa SSW 8 mph /  12.9 km/h 8 mph /  12.9 km/h 79 % 0 in /  0.0 mm
14:02 55.9 °F /  13.3 °C 50.2 °F /  10.1 °C 29.9 in /  1013.4 hPa South 6 mph /  9.7 km/h 9 mph /  14.5 km/h 81 % 0 in /  0.0 mm
14:07 56.1 °F /  13.4 °C 50 °F /  10.0 °C 29.9 in /  1013.1 hPa SSW 5 mph /  8.0 km/h 9 mph /  14.5 km/h 80 % 0 in /  0.0 mm
14:12 56.3 °F /  13.5 °C 49.8 °F /  9.9 °C 29.9 in /  1013.1 hPa SSW 3 mph /  4.8 km/h 9 mph /  14.5 km/h 79 % 0 in /  0.0 mm
14:17 56.5 °F /  13.6 °C 50 °F /  10.0 °C 29.9 in /  1013.1 hPa SW 5 mph /  8.0 km/h 10 mph /  16.1 km/h 79 % 0 in /  0.0 mm
14:22 56.3 °F /  13.5 °C 49.1 °F /  9.5 °C 29.9 in /  1013.1 hPa South 4 mph /  6.4 km/h 11 mph /  17.7 km/h 77 % 0 in /  0.0 mm
14:27 56.1 °F /  13.4 °C 49.3 °F /  9.6 °C 29.9 in /  1013.1 hPa SSW 5 mph /  8.0 km/h 12 mph /  19.3 km/h 78 % 0 in /  0.0 mm
14:32 56.1 °F /  13.4 °C 50 °F /  10.0 °C 29.9 in /  1013.1 hPa SW 6 mph /  9.7 km/h 12 mph /  19.3 km/h 80 % 0 in /  0.0 mm
14:37 56.1 °F /  13.4 °C 50 °F /  10.0 °C 29.9 in /  1013.1 hPa SW 7 mph /  11.3 km/h 10 mph /  16.1 km/h 80 % 0 in /  0.0 mm
14:42 56.3 °F /  13.5 °C 49.8 °F /  9.9 °C 29.9 in /  1013.1 hPa SSW 4 mph /  6.4 km/h 9 mph /  14.5 km/h 79 % 0 in /  0.0 mm
14:47 56.3 °F /  13.5 °C 49.8 °F /  9.9 °C 29.9 in /  1013.1 hPa SSW 6 mph /  9.7 km/h 9 mph /  14.5 km/h 79 % 0 in /  0.0 mm
14:52 56.3 °F /  13.5 °C 50.5 °F /  10.3 °C 29.9 in /  1013.1 hPa South 3 mph /  4.8 km/h 9 mph /  14.5 km/h 81 % 0 in /  0.0 mm
14:57 56.3 °F /  13.5 °C 50.2 °F /  10.1 °C 29.9 in /  1013.1 hPa SSE 2 mph /  3.2 km/h 9 mph /  14.5 km/h 80 % 0 in /  0.0 mm
15:02 56.1 °F /  13.4 °C 50 °F /  10.0 °C 29.9 in /  1013.1 hPa South 5 mph /  8.0 km/h 8 mph /  12.9 km/h 80 % 0 in /  0.0 mm
15:07 56.1 °F /  13.4 °C 50.4 °F /  10.2 °C 29.9 in /  1012.8 hPa SSW 6 mph /  9.7 km/h 6 mph /  9.7 km/h 81 % 0 in /  0.0 mm
15:12 56.3 °F /  13.5 °C 49.8 °F /  9.9 °C 29.9 in /  1012.8 hPa South 5 mph /  8.0 km/h 7 mph /  11.3 km/h 79 % 0 in /  0.0 mm
15:17 56.3 °F /  13.5 °C 50.5 °F /  10.3 °C 29.9 in /  1013.1 hPa South 3 mph /  4.8 km/h 7 mph /  11.3 km/h 81 % 0 in /  0.0 mm
15:22 56.1 °F /  13.4 °C 50.4 °F /  10.2 °C 29.9 in /  1012.8 hPa South 3 mph /  4.8 km/h 7 mph /  11.3 km/h 81 % 0 in /  0.0 mm
15:27 56.1 °F /  13.4 °C 50.4 °F /  10.2 °C 29.9 in /  1013.1 hPa SW 4 mph /  6.4 km/h 6 mph /  9.7 km/h 81 % 0 in /  0.0 mm
15:32 55.9 °F /  13.3 °C 49.5 °F /  9.7 °C 29.9 in /  1013.1 hPa SSW 4 mph /  6.4 km/h 7 mph /  11.3 km/h 79 % 0 in /  0.0 mm
15:37 55.9 °F /  13.3 °C 50.2 °F /  10.1 °C 29.9 in /  1013.1 hPa South 4 mph /  6.4 km/h 8 mph /  12.9 km/h 81 % 0 in /  0.0 mm
15:42 55.6 °F /  13.1 °C 49.8 °F /  9.9 °C 29.9 in /  1013.1 hPa SSW 3 mph /  4.8 km/h 8 mph /  12.9 km/h 81 % 0 in /  0.0 mm
15:52 55.2 °F /  12.9 °C 49.5 °F /  9.7 °C 29.9 in /  1013.1 hPa South 4 mph /  6.4 km/h 5 mph /  8.0 km/h 81 % 0 in /  0.0 mm
15:57 55 °F /  12.8 °C 48.9 °F /  9.4 °C 29.9 in /  1013.1 hPa South 3 mph /  4.8 km/h 7 mph /  11.3 km/h 80 % 0 in /  0.0 mm
16:02 54.9 °F /  12.7 °C 49.1 °F /  9.5 °C 29.9 in /  1013.1 hPa SSW 2 mph /  3.2 km/h 7 mph /  11.3 km/h 81 % 0 in /  0.0 mm
16:07 54.7 °F /  12.6 °C 48.9 °F /  9.4 °C 29.9 in /  1013.1 hPa SSW 3 mph /  4.8 km/h 7 mph /  11.3 km/h 81 % 0 in /  0.0 mm
16:12 54.7 °F /  12.6 °C 48.9 °F /  9.4 °C 29.9 in /  1012.8 hPa SSE 2 mph /  3.2 km/h 5 mph /  8.0 km/h 81 % 0 in /  0.0 mm
16:17 54.5 °F /  12.5 °C 48.7 °F /  9.3 °C 29.9 in /  1012.8 hPa SSW 1 mph /  1.6 km/h 5 mph /  8.0 km/h 81 % 0 in /  0.0 mm
16:22 54.1 °F /  12.3 °C 48.7 °F /  9.3 °C 29.9 in /  1012.8 hPa SSW 1 mph /  1.6 km/h 5 mph /  8.0 km/h 82 % 0 in /  0.0 mm
16:27 54.1 °F /  12.3 °C 48.7 °F /  9.3 °C 29.9 in /  1012.8 hPa SSW 1 mph /  1.6 km/h 4 mph /  6.4 km/h 82 % 0 in /  0.0 mm
16:32 54.1 °F /  12.3 °C 48.7 °F /  9.3 °C 29.9 in /  1012.8 hPa SW 2 mph /  3.2 km/h 4 mph /  6.4 km/h 82 % 0 in /  0.0 mm
16:37 54.1 °F /  12.3 °C 48.7 °F /  9.3 °C 29.9 in /  1013.1 hPa SW 2 mph /  3.2 km/h 4 mph /  6.4 km/h 82 % 0 in /  0.0 mm
16:42 54 °F /  12.2 °C 48.6 °F /  9.2 °C 29.9 in /  1013.1 hPa SSW 2 mph /  3.2 km/h 5 mph /  8.0 km/h 82 % 0 in /  0.0 mm
16:47 53.8 °F /  12.1 °C 48.7 °F /  9.3 °C 29.9 in /  1013.1 hPa SSW 3 mph /  4.8 km/h 5 mph /  8.0 km/h 83 % 0 in /  0.0 mm
16:52 53.6 °F /  12.0 °C 48.6 °F /  9.2 °C 29.9 in /  1013.1 hPa SSW 2 mph /  3.2 km/h 4 mph /  6.4 km/h 83 % 0 in /  0.0 mm
16:57 53.4 °F /  11.9 °C 48.7 °F /  9.3 °C 29.9 in /  1013.1 hPa SW 3 mph /  4.8 km/h 4 mph /  6.4 km/h 84 % 0 in /  0.0 mm
17:02 53.4 °F /  11.9 °C 48.7 °F /  9.3 °C 29.9 in /  1013.1 hPa SSW 1 mph /  1.6 km/h 3 mph /  4.8 km/h 84 % 0 in /  0.0 mm
17:07 53.2 °F /  11.8 °C 48.6 °F /  9.2 °C 29.9 in /  1013.1 hPa SSW 1 mph /  1.6 km/h 3 mph /  4.8 km/h 84 % 0 in /  0.0 mm
17:12 53.2 °F /  11.8 °C 48.6 °F /  9.2 °C 29.9 in /  1013.1 hPa SSW 1 mph /  1.6 km/h 3 mph /  4.8 km/h 84 % 0 in /  0.0 mm
17:17 53.1 °F /  11.7 °C 48.7 °F /  9.3 °C 29.9 in /  1013.1 hPa SSW 1 mph /  1.6 km/h 2 mph /  3.2 km/h 85 % 0 in /  0.0 mm
17:22 53.1 °F /  11.7 °C 48.7 °F /  9.3 °C 29.9 in /  1013.1 hPa South 1 mph /  1.6 km/h 2 mph /  3.2 km/h 85 % 0 in /  0.0 mm
17:27 52.9 °F /  11.6 °C 48.6 °F /  9.2 °C 29.9 in /  1013.1 hPa South 1 mph /  1.6 km/h 2 mph /  3.2 km/h 85 % 0 in /  0.0 mm
17:32 52.7 °F /  11.5 °C 48.4 °F /  9.1 °C 29.9 in /  1013.1 hPa SSW 1 mph /  1.6 km/h 2 mph /  3.2 km/h 85 % 0 in /  0.0 mm
17:37 52.5 °F /  11.4 °C 48.2 °F /  9.0 °C 29.9 in /  1013.1 hPa SSW 2 mph /  3.2 km/h 3 mph /  4.8 km/h 85 % 0 in /  0.0 mm
17:42 52.5 °F /  11.4 °C 48.2 °F /  9.0 °C 29.9 in /  1013.1 hPa SSW 1 mph /  1.6 km/h 4 mph /  6.4 km/h 85 % 0 in /  0.0 mm
17:47 52.3 °F /  11.3 °C 48.2 °F /  9.0 °C 29.9 in /  1013.1 hPa SSW 1 mph /  1.6 km/h 4 mph /  6.4 km/h 86 % 0 in /  0.0 mm
17:52 52.3 °F /  11.3 °C 48.2 °F /  9.0 °C 29.9 in /  1013.1 hPa SSW 1 mph /  1.6 km/h 4 mph /  6.4 km/h 86 % 0 in /  0.0 mm
17:57 52.3 °F /  11.3 °C 48.2 °F /  9.0 °C 29.9 in /  1013.4 hPa SW 1 mph /  1.6 km/h 2 mph /  3.2 km/h 86 % 0 in /  0.0 mm
18:02 52.3 °F /  11.3 °C 48 °F /  8.9 °C 29.9 in /  1013.4 hPa SSW 2 mph /  3.2 km/h 2 mph /  3.2 km/h 85 % 0 in /  0.0 mm
18:07 52.3 °F /  11.3 °C 48 °F /  8.9 °C 29.9 in /  1013.4 hPa SSW 2 mph /  3.2 km/h 2 mph /  3.2 km/h 85 % 0 in /  0.0 mm
18:12 52.3 °F /  11.3 °C 48 °F /  8.9 °C 29.9 in /  1013.4 hPa SSW 1 mph /  1.6 km/h 2 mph /  3.2 km/h 85 % 0 in /  0.0 mm
18:17 52.3 °F /  11.3 °C 48 °F /  8.9 °C 29.9 in /  1013.4 hPa SSW 2 mph /  3.2 km/h 3 mph /  4.8 km/h 85 % 0 in /  0.0 mm
18:22 52.3 °F /  11.3 °C 47.7 °F /  8.7 °C 29.9 in /  1013.4 hPa SSW 1 mph /  1.6 km/h 3 mph /  4.8 km/h 84 % 0 in /  0.0 mm
18:27 52.3 °F /  11.3 °C 48 °F /  8.9 °C 29.9 in /  1013.4 hPa SSW 1 mph /  1.6 km/h 3 mph /  4.8 km/h 85 % 0 in /  0.0 mm
18:32 52.2 °F /  11.2 °C 47.5 °F /  8.6 °C 29.9 in /  1013.4 hPa SSW 1 mph /  1.6 km/h 3 mph /  4.8 km/h 84 % 0 in /  0.0 mm
18:37 52 °F /  11.1 °C 47.7 °F /  8.7 °C 29.9 in /  1013.4 hPa SW 2 mph /  3.2 km/h 2 mph /  3.2 km/h 85 % 0 in /  0.0 mm
18:42 52 °F /  11.1 °C 47.3 °F /  8.5 °C 29.9 in /  1013.4 hPa SW 1 mph /  1.6 km/h 3 mph /  4.8 km/h 84 % 0 in /  0.0 mm
18:47 52 °F /  11.1 °C 47.3 °F /  8.5 °C 29.9 in /  1013.4 hPa SW 3 mph /  4.8 km/h 3 mph /  4.8 km/h 84 % 0 in /  0.0 mm
18:52 52 °F /  11.1 °C 47.3 °F /  8.5 °C 29.9 in /  1013.4 hPa SSW 3 mph /  4.8 km/h 4 mph /  6.4 km/h 84 % 0 in /  0.0 mm
18:57 52 °F /  11.1 °C 47.3 °F /  8.5 °C 29.9 in /  1013.4 hPa South 2 mph /  3.2 km/h 4 mph /  6.4 km/h 84 % 0 in /  0.0 mm
19:02 51.6 °F /  10.9 °C 46.9 °F /  8.3 °C 29.9 in /  1013.4 hPa SSW 1 mph /  1.6 km/h 4 mph /  6.4 km/h 84 % 0 in /  0.0 mm
19:07 51.3 °F /  10.7 °C 46.9 °F /  8.3 °C 29.9 in /  1013.4 hPa SSW 3 mph /  4.8 km/h 4 mph /  6.4 km/h 85 % 0 in /  0.0 mm
19:12 50.9 °F /  10.5 °C 46.6 °F /  8.1 °C 29.9 in /  1013.4 hPa SSW 3 mph /  4.8 km/h 4 mph /  6.4 km/h 85 % 0 in /  0.0 mm
19:17 50.9 °F /  10.5 °C 46.6 °F /  8.1 °C 29.9 in /  1013.4 hPa SW 4 mph /  6.4 km/h 4 mph /  6.4 km/h 85 % 0 in /  0.0 mm
19:22 51.1 °F /  10.6 °C 46.8 °F /  8.2 °C 29.9 in /  1013.4 hPa SW 8 mph /  12.9 km/h 8 mph /  12.9 km/h 85 % 0 in /  0.0 mm
19:27 51.1 °F /  10.6 °C 46.8 °F /  8.2 °C 29.9 in /  1013.8 hPa SW 5 mph /  8.0 km/h 8 mph /  12.9 km/h 85 % 0 in /  0.0 mm
19:32 51.1 °F /  10.6 °C 46.8 °F /  8.2 °C 29.9 in /  1013.8 hPa SW 6 mph /  9.7 km/h 8 mph /  12.9 km/h 85 % 0 in /  0.0 mm
19:37 50.9 °F /  10.5 °C 46.6 °F /  8.1 °C 29.9 in /  1013.8 hPa SW 6 mph /  9.7 km/h 8 mph /  12.9 km/h 85 % 0 in /  0.0 mm
19:42 51.3 °F /  10.7 °C 46.6 °F /  8.1 °C 29.9 in /  1013.8 hPa SW 8 mph /  12.9 km/h 9 mph /  14.5 km/h 84 % 0 in /  0.0 mm
19:47 51.8 °F /  11.0 °C 46.8 °F /  8.2 °C 29.9 in /  1013.8 hPa SW 3 mph /  4.8 km/h 9 mph /  14.5 km/h 83 % 0 in /  0.0 mm
19:52 52.2 °F /  11.2 °C 46.8 °F /  8.2 °C 29.9 in /  1013.8 hPa SW 4 mph /  6.4 km/h 9 mph /  14.5 km/h 82 % 0 in /  0.0 mm
19:57 52.2 °F /  11.2 °C 46.8 °F /  8.2 °C 29.9 in /  1013.8 hPa West 2 mph /  3.2 km/h 9 mph /  14.5 km/h 82 % 0 in /  0.0 mm
20:02 52.3 °F /  11.3 °C 46.8 °F /  8.2 °C 29.9 in /  1013.8 hPa Calm   7 mph /  11.3 km/h 81 % 0 in /  0.0 mm
20:12 52.7 °F /  11.5 °C 46.8 °F /  8.2 °C 29.9 in /  1013.8 hPa SW 4 mph /  6.4 km/h 9 mph /  14.5 km/h 80 % 0 in /  0.0 mm
20:17 52.9 °F /  11.6 °C 46.9 °F /  8.3 °C 29.9 in /  1013.4 hPa SW 2 mph /  3.2 km/h 9 mph /  14.5 km/h 80 % 0 in /  0.0 mm
20:22 52.9 °F /  11.6 °C 46.9 °F /  8.3 °C 29.9 in /  1013.4 hPa WSW 7 mph /  11.3 km/h 9 mph /  14.5 km/h 80 % 0 in /  0.0 mm
20:32 52.9 °F /  11.6 °C 46.9 °F /  8.3 °C 29.9 in /  1013.4 hPa SW 5 mph /  8.0 km/h 9 mph /  14.5 km/h 80 % 0 in /  0.0 mm
20:37 52.7 °F /  11.5 °C 46.8 °F /  8.2 °C 29.9 in /  1013.4 hPa SW 6 mph /  9.7 km/h 9 mph /  14.5 km/h 80 % 0 in /  0.0 mm
20:42 52.3 °F /  11.3 °C 46.8 °F /  8.2 °C 29.9 in /  1013.4 hPa SW 6 mph /  9.7 km/h 8 mph /  12.9 km/h 81 % 0 in /  0.0 mm
20:52 52.2 °F /  11.2 °C 46.6 °F /  8.1 °C 29.9 in /  1013.8 hPa SW 6 mph /  9.7 km/h 10 mph /  16.1 km/h 81 % 0 in /  0.0 mm
20:57 52.2 °F /  11.2 °C 46.6 °F /  8.1 °C 29.9 in /  1013.8 hPa SW 7 mph /  11.3 km/h 10 mph /  16.1 km/h 81 % 0 in /  0.0 mm
21:02 52 °F /  11.1 °C 46.4 °F /  8.0 °C 29.9 in /  1013.8 hPa SSW 3 mph /  4.8 km/h 10 mph /  16.1 km/h 81 % 0 in /  0.0 mm
21:07 51.1 °F /  10.6 °C 46.4 °F /  8.0 °C 29.9 in /  1013.4 hPa SSW 6 mph /  9.7 km/h 10 mph /  16.1 km/h 84 % 0 in /  0.0 mm
21:12 51.1 °F /  10.6 °C 46.4 °F /  8.0 °C 29.9 in /  1013.4 hPa SW 3 mph /  4.8 km/h 10 mph /  16.1 km/h 84 % 0 in /  0.0 mm
21:22 51.4 °F /  10.8 °C 46.2 °F /  7.9 °C 29.9 in /  1013.4 hPa SW 3 mph /  4.8 km/h 8 mph /  12.9 km/h 82 % 0 in /  0.0 mm
21:32 51.3 °F /  10.7 °C 46.2 °F /  7.9 °C 29.9 in /  1013.4 hPa SSW 3 mph /  4.8 km/h 8 mph /  12.9 km/h 83 % 0 in /  0.0 mm
21:37 50.9 °F /  10.5 °C 45.9 °F /  7.7 °C 29.9 in /  1013.4 hPa SW 4 mph /  6.4 km/h 7 mph /  11.3 km/h 83 % 0 in /  0.0 mm
21:42 50.9 °F /  10.5 °C 46.2 °F /  7.9 °C 29.9 in /  1013.1 hPa SW 3 mph /  4.8 km/h 6 mph /  9.7 km/h 84 % 0 in /  0.0 mm
21:47 50.9 °F /  10.5 °C 45.9 °F /  7.7 °C 29.9 in /  1013.1 hPa SW 5 mph /  8.0 km/h 5 mph /  8.0 km/h 83 % 0 in /  0.0 mm
21:52 50.9 °F /  10.5 °C 45.9 °F /  7.7 °C 29.9 in /  1013.1 hPa SW 4 mph /  6.4 km/h 6 mph /  9.7 km/h 83 % 0 in /  0.0 mm
21:57 50.9 °F /  10.5 °C 45.9 °F /  7.7 °C 29.9 in /  1013.1 hPa SSW 1 mph /  1.6 km/h 6 mph /  9.7 km/h 83 % 0 in /  0.0 mm
22:02 50 °F /  10.0 °C 45 °F /  7.2 °C 29.9 in /  1013.1 hPa SSE 2 mph /  3.2 km/h 6 mph /  9.7 km/h 83 % 0 in /  0.0 mm
22:12 48.6 °F /  9.2 °C 44.8 °F /  7.1 °C 29.9 in /  1013.1 hPa South 1 mph /  1.6 km/h 3 mph /  4.8 km/h 87 % 0 in /  0.0 mm
22:17 47.8 °F /  8.8 °C 44.4 °F /  6.9 °C 29.9 in /  1012.8 hPa SW 3 mph /  4.8 km/h 3 mph /  4.8 km/h 88 % 0 in /  0.0 mm
22:22 48.4 °F /  9.1 °C 45.3 °F /  7.4 °C 29.9 in /  1012.8 hPa SW 4 mph /  6.4 km/h 4 mph /  6.4 km/h 89 % 0 in /  0.0 mm
22:27 48.9 °F /  9.4 °C 45.5 °F /  7.5 °C 29.9 in /  1012.8 hPa SSW 3 mph /  4.8 km/h 5 mph /  8.0 km/h 88 % 0 in /  0.0 mm
22:32 49.5 °F /  9.7 °C 45.5 °F /  7.5 °C 29.9 in /  1012.8 hPa SW 3 mph /  4.8 km/h 5 mph /  8.0 km/h 86 % 0 in /  0.0 mm
22:37 50 °F /  10.0 °C 45.7 °F /  7.6 °C 29.9 in /  1012.8 hPa WSW 4 mph /  6.4 km/h 6 mph /  9.7 km/h 85 % 0 in /  0.0 mm
22:42 50.2 °F /  10.1 °C 45.5 °F /  7.5 °C 29.9 in /  1012.8 hPa WSW 4 mph /  6.4 km/h 6 mph /  9.7 km/h 84 % 0 in /  0.0 mm
22:52 50.7 °F /  10.4 °C 46 °F /  7.8 °C 29.9 in /  1012.8 hPa SSW 2 mph /  3.2 km/h 8 mph /  12.9 km/h 84 % 0 in /  0.0 mm
22:57 50.4 °F /  10.2 °C 45.3 °F /  7.4 °C 29.9 in /  1012.8 hPa SSE 1 mph /  1.6 km/h 8 mph /  12.9 km/h 83 % 0 in /  0.0 mm
23:02 48.6 °F /  9.2 °C 43.7 °F /  6.5 °C 29.9 in /  1012.8 hPa SE 2 mph /  3.2 km/h 7 mph /  11.3 km/h 83 % 0 in /  0.0 mm
23:12 47.3 °F /  8.5 °C 43.7 °F /  6.5 °C 29.9 in /  1012.8 hPa SSE 1 mph /  1.6 km/h 4 mph /  6.4 km/h 87 % 0 in /  0.0 mm
23:17 46.6 °F /  8.1 °C 43 °F /  6.1 °C 29.9 in /  1012.8 hPa SSW 1 mph /  1.6 km/h 4 mph /  6.4 km/h 87 % 0 in /  0.0 mm
23:22 45.9 °F /  7.7 °C 42.8 °F /  6.0 °C 29.9 in /  1012.8 hPa SSW 1 mph /  1.6 km/h 3 mph /  4.8 km/h 89 % 0 in /  0.0 mm
23:27 45.7 °F /  7.6 °C 43 °F /  6.1 °C 29.9 in /  1012.8 hPa South 1 mph /  1.6 km/h 2 mph /  3.2 km/h 90 % 0 in /  0.0 mm
23:32 45.5 °F /  7.5 °C 43 °F /  6.1 °C 29.9 in /  1012.8 hPa SSW 1 mph /  1.6 km/h 2 mph /  3.2 km/h 91 % 0 in /  0.0 mm
23:42 46 °F /  7.8 °C 43.9 °F /  6.6 °C 29.9 in /  1012.4 hPa SSE 1 mph /  1.6 km/h 2 mph /  3.2 km/h 92 % 0 in /  0.0 mm
23:47 46.2 °F /  7.9 °C 44.1 °F /  6.7 °C 29.9 in /  1012.4 hPa Calm   2 mph /  3.2 km/h 92 % 0 in /  0.0 mm
23:52 46.2 °F /  7.9 °C 44.1 °F /  6.7 °C 29.9 in /  1012.4 hPa Calm   1 mph /  1.6 km/h 92 % 0 in /  0.0 mm
23:57 46 °F /  7.8 °C 43.5 °F /  6.4 °C 29.9 in /  1012.4 hPa SSW 1 mph /  1.6 km/h 1 mph /  1.6 km/h 91 % 0 in /  0.0 mm
Meteo18
Compliments of Weather Underground - 4 mb

Script developed by  Jim McMurry - jmcmurry@mwt.net Adapted for the template by  Wim van der Kuil - Leuven-Template.eu

You find our weather info also at:

European Weather Network

Weather Underground

Equipment we use:

Weather-station
Davis Vue

Weather-program
Meteohub

Weather-server
Raspberry PI 2 B+

Provider
1 and 1

Davis Vue

Meteohub

Raspberry PI 2 B+

1 and 1